sensor_id;sensor_type;location;lat;lon;timestamp;P1;durP1;ratioP1;P2;durP2;ratioP2
69226;SDS011;56334;52.398;7.552;2023-05-23T00:00:20;15.00;;;7.95;;
69226;SDS011;56334;52.398;7.552;2023-05-23T00:02:46;16.65;;;8.45;;
69226;SDS011;56334;52.398;7.552;2023-05-23T00:05:12;17.02;;;8.57;;
69226;SDS011;56334;52.398;7.552;2023-05-23T00:07:39;16.02;;;8.23;;
69226;SDS011;56334;52.398;7.552;2023-05-23T00:10:05;15.90;;;8.98;;
69226;SDS011;56334;52.398;7.552;2023-05-23T00:12:33;17.67;;;8.50;;
69226;SDS011;56334;52.398;7.552;2023-05-23T00:15:01;16.73;;;8.95;;
69226;SDS011;56334;52.398;7.552;2023-05-23T00:17:27;17.70;;;9.50;;
69226;SDS011;56334;52.398;7.552;2023-05-23T00:19:53;16.48;;;8.82;;
69226;SDS011;56334;52.398;7.552;2023-05-23T00:22:20;15.48;;;8.60;;
69226;SDS011;56334;52.398;7.552;2023-05-23T00:24:46;17.40;;;9.07;;
69226;SDS011;56334;52.398;7.552;2023-05-23T00:27:12;18.30;;;9.63;;
69226;SDS011;56334;52.398;7.552;2023-05-23T00:29:38;17.00;;;9.07;;
69226;SDS011;56334;52.398;7.552;2023-05-23T00:32:04;16.77;;;8.68;;
69226;SDS011;56334;52.398;7.552;2023-05-23T00:34:30;16.80;;;8.48;;
69226;SDS011;56334;52.398;7.552;2023-05-23T00:36:56;19.52;;;9.07;;
69226;SDS011;56334;52.398;7.552;2023-05-23T00:39:22;17.77;;;7.93;;
69226;SDS011;56334;52.398;7.552;2023-05-23T00:41:49;16.17;;;8.60;;
69226;SDS011;56334;52.398;7.552;2023-05-23T00:44:15;15.02;;;7.55;;
69226;SDS011;56334;52.398;7.552;2023-05-23T00:46:42;15.18;;;8.05;;
69226;SDS011;56334;52.398;7.552;2023-05-23T00:49:08;15.18;;;8.00;;
69226;SDS011;56334;52.398;7.552;2023-05-23T00:51:34;14.90;;;7.38;;
69226;SDS011;56334;52.398;7.552;2023-05-23T00:54:01;15.25;;;7.90;;
69226;SDS011;56334;52.398;7.552;2023-05-23T00:56:28;15.23;;;8.05;;
69226;SDS011;56334;52.398;7.552;2023-05-23T00:58:55;14.23;;;7.65;;
69226;SDS011;56334;52.398;7.552;2023-05-23T01:01:21;15.98;;;8.00;;
69226;SDS011;56334;52.398;7.552;2023-05-23T01:03:48;16.75;;;7.82;;
69226;SDS011;56334;52.398;7.552;2023-05-23T01:06:14;17.80;;;8.82;;
69226;SDS011;56334;52.398;7.552;2023-05-23T01:08:41;17.02;;;8.60;;
69226;SDS011;56334;52.398;7.552;2023-05-23T01:11:11;19.80;;;9.35;;
69226;SDS011;56334;52.398;7.552;2023-05-23T01:13:39;20.73;;;9.52;;
69226;SDS011;56334;52.398;7.552;2023-05-23T01:16:16;21.02;;;10.40;;
69226;SDS011;56334;52.398;7.552;2023-05-23T01:18:57;22.77;;;10.57;;
69226;SDS011;56334;52.398;7.552;2023-05-23T01:21:24;23.83;;;11.20;;
69226;SDS011;56334;52.398;7.552;2023-05-23T01:26:40;24.27;;;12.82;;
69226;SDS011;56334;52.398;7.552;2023-05-23T01:29:12;24.05;;;11.18;;
69226;SDS011;56334;52.398;7.552;2023-05-23T01:31:41;26.05;;;12.98;;
69226;SDS011;56334;52.398;7.552;2023-05-23T01:34:11;25.35;;;12.20;;
69226;SDS011;56334;52.398;7.552;2023-05-23T01:36:41;28.92;;;13.27;;
69226;SDS011;56334;52.398;7.552;2023-05-23T01:39:07;29.52;;;13.90;;
69226;SDS011;56334;52.398;7.552;2023-05-23T01:41:34;27.63;;;13.75;;
69226;SDS011;56334;52.398;7.552;2023-05-23T01:44:06;29.40;;;14.50;;
69226;SDS011;56334;52.398;7.552;2023-05-23T01:46:32;27.55;;;15.10;;
69226;SDS011;56334;52.398;7.552;2023-05-23T01:51:26;30.85;;;14.40;;
69226;SDS011;56334;52.398;7.552;2023-05-23T01:53:52;34.58;;;15.32;;
69226;SDS011;56334;52.398;7.552;2023-05-23T01:56:19;31.73;;;14.85;;
69226;SDS011;56334;52.398;7.552;2023-05-23T02:01:11;31.70;;;14.02;;
69226;SDS011;56334;52.398;7.552;2023-05-23T02:03:37;34.97;;;12.90;;
69226;SDS011;56334;52.398;7.552;2023-05-23T02:06:03;27.85;;;12.25;;
69226;SDS011;56334;52.398;7.552;2023-05-23T02:08:29;27.67;;;10.98;;
69226;SDS011;56334;52.398;7.552;2023-05-23T02:10:55;26.13;;;11.07;;
69226;SDS011;56334;52.398;7.552;2023-05-23T02:13:21;25.67;;;11.20;;
69226;SDS011;56334;52.398;7.552;2023-05-23T02:15:47;26.65;;;12.45;;
69226;SDS011;56334;52.398;7.552;2023-05-23T02:18:13;27.13;;;13.13;;
69226;SDS011;56334;52.398;7.552;2023-05-23T02:20:39;26.00;;;11.77;;
69226;SDS011;56334;52.398;7.552;2023-05-23T02:23:05;26.60;;;11.82;;
69226;SDS011;56334;52.398;7.552;2023-05-23T02:25:32;26.95;;;11.95;;
69226;SDS011;56334;52.398;7.552;2023-05-23T02:27:58;25.42;;;12.45;;
69226;SDS011;56334;52.398;7.552;2023-05-23T02:30:24;21.92;;;10.35;;
69226;SDS011;56334;52.398;7.552;2023-05-23T02:32:50;28.17;;;11.43;;
69226;SDS011;56334;52.398;7.552;2023-05-23T02:35:16;23.70;;;10.77;;
69226;SDS011;56334;52.398;7.552;2023-05-23T02:37:42;25.25;;;10.85;;
69226;SDS011;56334;52.398;7.552;2023-05-23T02:40:08;24.52;;;11.32;;
69226;SDS011;56334;52.398;7.552;2023-05-23T02:42:34;21.25;;;9.73;;
69226;SDS011;56334;52.398;7.552;2023-05-23T02:45:00;22.50;;;9.85;;
69226;SDS011;56334;52.398;7.552;2023-05-23T02:47:26;23.70;;;11.10;;
69226;SDS011;56334;52.398;7.552;2023-05-23T02:49:52;22.45;;;10.38;;
69226;SDS011;56334;52.398;7.552;2023-05-23T02:52:18;22.88;;;10.68;;
69226;SDS011;56334;52.398;7.552;2023-05-23T02:54:44;22.90;;;10.05;;
69226;SDS011;56334;52.398;7.552;2023-05-23T02:57:10;20.02;;;9.85;;
69226;SDS011;56334;52.398;7.552;2023-05-23T02:59:36;20.90;;;10.57;;
69226;SDS011;56334;52.398;7.552;2023-05-23T03:02:02;18.65;;;10.30;;
69226;SDS011;56334;52.398;7.552;2023-05-23T03:04:29;20.38;;;10.23;;
69226;SDS011;56334;52.398;7.552;2023-05-23T03:06:55;18.98;;;9.95;;
69226;SDS011;56334;52.398;7.552;2023-05-23T03:09:23;19.40;;;10.10;;
69226;SDS011;56334;52.398;7.552;2023-05-23T03:11:49;22.45;;;10.45;;
69226;SDS011;56334;52.398;7.552;2023-05-23T03:14:15;22.95;;;10.55;;
69226;SDS011;56334;52.398;7.552;2023-05-23T03:16:42;23.48;;;11.15;;
69226;SDS011;56334;52.398;7.552;2023-05-23T03:19:09;21.67;;;11.70;;
69226;SDS011;56334;52.398;7.552;2023-05-23T03:21:35;22.58;;;11.52;;
69226;SDS011;56334;52.398;7.552;2023-05-23T03:24:01;25.23;;;11.75;;
69226;SDS011;56334;52.398;7.552;2023-05-23T03:26:27;23.73;;;12.05;;
69226;SDS011;56334;52.398;7.552;2023-05-23T03:28:53;21.15;;;11.60;;
69226;SDS011;56334;52.398;7.552;2023-05-23T03:31:20;24.38;;;12.10;;
69226;SDS011;56334;52.398;7.552;2023-05-23T03:33:46;22.08;;;11.68;;
69226;SDS011;56334;52.398;7.552;2023-05-23T03:36:12;20.00;;;11.20;;
69226;SDS011;56334;52.398;7.552;2023-05-23T03:38:38;28.35;;;13.13;;
69226;SDS011;56334;52.398;7.552;2023-05-23T03:41:04;26.30;;;13.02;;
69226;SDS011;56334;52.398;7.552;2023-05-23T03:43:30;27.13;;;14.38;;
69226;SDS011;56334;52.398;7.552;2023-05-23T03:45:56;28.90;;;14.77;;
69226;SDS011;56334;52.398;7.552;2023-05-23T03:48:22;25.63;;;13.90;;
69226;SDS011;56334;52.398;7.552;2023-05-23T03:50:48;28.33;;;14.27;;
69226;SDS011;56334;52.398;7.552;2023-05-23T03:53:14;29.50;;;14.07;;
69226;SDS011;56334;52.398;7.552;2023-05-23T03:55:40;25.25;;;12.25;;
69226;SDS011;56334;52.398;7.552;2023-05-23T03:58:07;26.73;;;13.93;;
69226;SDS011;56334;52.398;7.552;2023-05-23T04:00:33;28.25;;;13.15;;
69226;SDS011;56334;52.398;7.552;2023-05-23T04:02:59;26.38;;;13.77;;
69226;SDS011;56334;52.398;7.552;2023-05-23T04:05:25;26.98;;;13.38;;
69226;SDS011;56334;52.398;7.552;2023-05-23T04:07:51;26.17;;;13.77;;
69226;SDS011;56334;52.398;7.552;2023-05-23T04:10:17;27.23;;;13.05;;
69226;SDS011;56334;52.398;7.552;2023-05-23T04:12:45;24.85;;;12.73;;
69226;SDS011;56334;52.398;7.552;2023-05-23T04:15:11;28.10;;;13.00;;
69226;SDS011;56334;52.398;7.552;2023-05-23T04:17:37;26.35;;;13.13;;
69226;SDS011;56334;52.398;7.552;2023-05-23T04:20:06;23.63;;;10.30;;
69226;SDS011;56334;52.398;7.552;2023-05-23T04:22:33;24.52;;;11.20;;
69226;SDS011;56334;52.398;7.552;2023-05-23T04:25:00;26.67;;;10.98;;
69226;SDS011;56334;52.398;7.552;2023-05-23T04:27:26;25.08;;;10.40;;
69226;SDS011;56334;52.398;7.552;2023-05-23T04:29:52;26.17;;;10.82;;
69226;SDS011;56334;52.398;7.552;2023-05-23T04:32:18;22.80;;;9.80;;
69226;SDS011;56334;52.398;7.552;2023-05-23T04:34:47;21.80;;;9.38;;
69226;SDS011;56334;52.398;7.552;2023-05-23T04:37:14;25.95;;;9.73;;
69226;SDS011;56334;52.398;7.552;2023-05-23T04:39:41;25.58;;;9.93;;
69226;SDS011;56334;52.398;7.552;2023-05-23T04:42:07;25.23;;;10.07;;
69226;SDS011;56334;52.398;7.552;2023-05-23T04:44:33;23.42;;;9.25;;
69226;SDS011;56334;52.398;7.552;2023-05-23T04:47:01;25.95;;;9.98;;
69226;SDS011;56334;52.398;7.552;2023-05-23T04:49:28;23.13;;;9.82;;
69226;SDS011;56334;52.398;7.552;2023-05-23T04:51:54;23.30;;;8.95;;
69226;SDS011;56334;52.398;7.552;2023-05-23T04:54:20;24.42;;;9.45;;
69226;SDS011;56334;52.398;7.552;2023-05-23T04:56:46;16.88;;;7.72;;
69226;SDS011;56334;52.398;7.552;2023-05-23T04:59:12;19.70;;;7.75;;
69226;SDS011;56334;52.398;7.552;2023-05-23T05:01:38;19.73;;;7.18;;
69226;SDS011;56334;52.398;7.552;2023-05-23T05:04:05;20.67;;;7.32;;
69226;SDS011;56334;52.398;7.552;2023-05-23T05:06:31;19.00;;;6.50;;
69226;SDS011;56334;52.398;7.552;2023-05-23T05:08:58;18.42;;;6.97;;
69226;SDS011;56334;52.398;7.552;2023-05-23T05:11:24;15.65;;;5.50;;
69226;SDS011;56334;52.398;7.552;2023-05-23T05:16:17;9.90;;;3.33;;
69226;SDS011;56334;52.398;7.552;2023-05-23T05:18:43;12.77;;;4.72;;
69226;SDS011;56334;52.398;7.552;2023-05-23T05:21:09;12.40;;;4.82;;
69226;SDS011;56334;52.398;7.552;2023-05-23T05:23:35;14.55;;;4.68;;
69226;SDS011;56334;52.398;7.552;2023-05-23T05:26:01;12.02;;;5.18;;
69226;SDS011;56334;52.398;7.552;2023-05-23T05:28:29;12.60;;;4.70;;
69226;SDS011;56334;52.398;7.552;2023-05-23T05:30:55;10.55;;;4.32;;
69226;SDS011;56334;52.398;7.552;2023-05-23T05:33:21;10.68;;;3.95;;
69226;SDS011;56334;52.398;7.552;2023-05-23T05:35:48;10.88;;;3.30;;
69226;SDS011;56334;52.398;7.552;2023-05-23T05:38:17;10.65;;;3.10;;
69226;SDS011;56334;52.398;7.552;2023-05-23T05:40:43;8.65;;;3.10;;
69226;SDS011;56334;52.398;7.552;2023-05-23T05:43:10;8.82;;;3.58;;
69226;SDS011;56334;52.398;7.552;2023-05-23T05:45:36;9.63;;;3.40;;
69226;SDS011;56334;52.398;7.552;2023-05-23T05:48:02;10.23;;;3.33;;
69226;SDS011;56334;52.398;7.552;2023-05-23T05:50:28;10.43;;;3.15;;
69226;SDS011;56334;52.398;7.552;2023-05-23T05:52:54;10.90;;;2.83;;
69226;SDS011;56334;52.398;7.552;2023-05-23T05:55:20;11.77;;;3.70;;
69226;SDS011;56334;52.398;7.552;2023-05-23T05:57:46;9.10;;;3.30;;
69226;SDS011;56334;52.398;7.552;2023-05-23T06:00:12;12.18;;;3.58;;
69226;SDS011;56334;52.398;7.552;2023-05-23T06:05:05;9.85;;;3.47;;
69226;SDS011;56334;52.398;7.552;2023-05-23T06:07:35;9.35;;;3.33;;
69226;SDS011;56334;52.398;7.552;2023-05-23T06:10:01;7.90;;;3.08;;
69226;SDS011;56334;52.398;7.552;2023-05-23T06:12:28;10.15;;;3.80;;
69226;SDS011;56334;52.398;7.552;2023-05-23T06:14:54;10.30;;;3.75;;
69226;SDS011;56334;52.398;7.552;2023-05-23T06:17:20;10.60;;;4.20;;
69226;SDS011;56334;52.398;7.552;2023-05-23T06:19:46;10.13;;;3.88;;
69226;SDS011;56334;52.398;7.552;2023-05-23T06:22:12;9.77;;;4.03;;
69226;SDS011;56334;52.398;7.552;2023-05-23T06:24:38;10.02;;;4.10;;
69226;SDS011;56334;52.398;7.552;2023-05-23T06:27:05;13.48;;;3.63;;
69226;SDS011;56334;52.398;7.552;2023-05-23T06:29:31;9.43;;;3.80;;
69226;SDS011;56334;52.398;7.552;2023-05-23T06:31:57;10.90;;;4.18;;
69226;SDS011;56334;52.398;7.552;2023-05-23T06:34:23;11.20;;;4.47;;
69226;SDS011;56334;52.398;7.552;2023-05-23T06:36:49;12.65;;;4.57;;
69226;SDS011;56334;52.398;7.552;2023-05-23T06:39:15;10.82;;;4.20;;
69226;SDS011;56334;52.398;7.552;2023-05-23T06:41:41;12.32;;;4.40;;
69226;SDS011;56334;52.398;7.552;2023-05-23T06:44:07;15.00;;;5.32;;
69226;SDS011;56334;52.398;7.552;2023-05-23T06:46:33;13.90;;;5.32;;
69226;SDS011;56334;52.398;7.552;2023-05-23T06:48:59;15.70;;;5.78;;
69226;SDS011;56334;52.398;7.552;2023-05-23T06:51:25;14.20;;;5.13;;
69226;SDS011;56334;52.398;7.552;2023-05-23T06:53:51;14.48;;;5.00;;
69226;SDS011;56334;52.398;7.552;2023-05-23T06:56:17;14.10;;;5.55;;
69226;SDS011;56334;52.398;7.552;2023-05-23T06:58:43;18.10;;;5.20;;
69226;SDS011;56334;52.398;7.552;2023-05-23T07:01:09;14.30;;;5.00;;
69226;SDS011;56334;52.398;7.552;2023-05-23T07:03:37;13.05;;;4.50;;
69226;SDS011;56334;52.398;7.552;2023-05-23T07:06:05;10.93;;;4.07;;
69226;SDS011;56334;52.398;7.552;2023-05-23T07:08:31;13.48;;;5.38;;
69226;SDS011;56334;52.398;7.552;2023-05-23T07:10:57;10.35;;;4.53;;
69226;SDS011;56334;52.398;7.552;2023-05-23T07:13:23;12.32;;;3.58;;
69226;SDS011;56334;52.398;7.552;2023-05-23T07:15:49;13.25;;;4.38;;
69226;SDS011;56334;52.398;7.552;2023-05-23T07:18:16;13.27;;;4.00;;
69226;SDS011;56334;52.398;7.552;2023-05-23T07:20:42;12.43;;;4.15;;
69226;SDS011;56334;52.398;7.552;2023-05-23T07:23:08;13.00;;;4.45;;
69226;SDS011;56334;52.398;7.552;2023-05-23T07:25:34;11.90;;;4.10;;
69226;SDS011;56334;52.398;7.552;2023-05-23T07:28:00;15.77;;;4.38;;
69226;SDS011;56334;52.398;7.552;2023-05-23T07:30:26;10.90;;;3.78;;
69226;SDS011;56334;52.398;7.552;2023-05-23T07:32:52;12.60;;;3.78;;
69226;SDS011;56334;52.398;7.552;2023-05-23T07:35:19;15.88;;;3.90;;
69226;SDS011;56334;52.398;7.552;2023-05-23T07:37:50;11.57;;;3.35;;
69226;SDS011;56334;52.398;7.552;2023-05-23T07:40:16;10.35;;;2.95;;
69226;SDS011;56334;52.398;7.552;2023-05-23T07:42:42;11.00;;;3.80;;
69226;SDS011;56334;52.398;7.552;2023-05-23T07:45:08;10.95;;;4.10;;
69226;SDS011;56334;52.398;7.552;2023-05-23T07:47:34;15.77;;;4.20;;
69226;SDS011;56334;52.398;7.552;2023-05-23T07:50:00;11.07;;;3.53;;
69226;SDS011;56334;52.398;7.552;2023-05-23T07:52:28;15.52;;;4.15;;
69226;SDS011;56334;52.398;7.552;2023-05-23T07:54:57;11.88;;;4.05;;
69226;SDS011;56334;52.398;7.552;2023-05-23T07:57:27;14.20;;;4.43;;
69226;SDS011;56334;52.398;7.552;2023-05-23T07:59:53;15.75;;;5.03;;
69226;SDS011;56334;52.398;7.552;2023-05-23T08:02:19;14.13;;;5.18;;
69226;SDS011;56334;52.398;7.552;2023-05-23T08:04:46;16.42;;;4.60;;
69226;SDS011;56334;52.398;7.552;2023-05-23T08:07:12;13.63;;;4.57;;
69226;SDS011;56334;52.398;7.552;2023-05-23T08:09:38;13.15;;;4.82;;
69226;SDS011;56334;52.398;7.552;2023-05-23T08:12:05;17.55;;;4.97;;
69226;SDS011;56334;52.398;7.552;2023-05-23T08:14:31;12.15;;;4.53;;
69226;SDS011;56334;52.398;7.552;2023-05-23T08:16:57;15.07;;;4.90;;
69226;SDS011;56334;52.398;7.552;2023-05-23T08:19:23;17.92;;;5.20;;
69226;SDS011;56334;52.398;7.552;2023-05-23T08:21:49;14.07;;;4.70;;
69226;SDS011;56334;52.398;7.552;2023-05-23T08:24:18;18.48;;;5.13;;
69226;SDS011;56334;52.398;7.552;2023-05-23T08:26:45;14.27;;;4.72;;
69226;SDS011;56334;52.398;7.552;2023-05-23T08:29:11;12.55;;;4.38;;
69226;SDS011;56334;52.398;7.552;2023-05-23T08:31:37;18.40;;;4.88;;
69226;SDS011;56334;52.398;7.552;2023-05-23T08:34:03;14.73;;;4.95;;
69226;SDS011;56334;52.398;7.552;2023-05-23T08:36:29;18.23;;;5.25;;
69226;SDS011;56334;52.398;7.552;2023-05-23T08:39:01;15.73;;;5.05;;
69226;SDS011;56334;52.398;7.552;2023-05-23T08:41:28;15.60;;;4.40;;
69226;SDS011;56334;52.398;7.552;2023-05-23T08:43:56;18.05;;;4.97;;
69226;SDS011;56334;52.398;7.552;2023-05-23T08:46:22;17.40;;;4.78;;
69226;SDS011;56334;52.398;7.552;2023-05-23T08:48:50;17.70;;;4.88;;
69226;SDS011;56334;52.398;7.552;2023-05-23T08:51:17;14.07;;;3.88;;
69226;SDS011;56334;52.398;7.552;2023-05-23T08:53:44;16.20;;;4.57;;
69226;SDS011;56334;52.398;7.552;2023-05-23T08:56:11;13.13;;;4.30;;
69226;SDS011;56334;52.398;7.552;2023-05-23T08:58:37;16.30;;;4.40;;
69226;SDS011;56334;52.398;7.552;2023-05-23T09:01:06;14.48;;;4.43;;
69226;SDS011;56334;52.398;7.552;2023-05-23T09:03:34;16.05;;;4.38;;
69226;SDS011;56334;52.398;7.552;2023-05-23T09:06:01;15.15;;;3.88;;
69226;SDS011;56334;52.398;7.552;2023-05-23T09:08:28;13.00;;;3.83;;
69226;SDS011;56334;52.398;7.552;2023-05-23T09:10:54;11.60;;;3.50;;
69226;SDS011;56334;52.398;7.552;2023-05-23T09:13:20;14.15;;;3.80;;
69226;SDS011;56334;52.398;7.552;2023-05-23T09:15:56;13.77;;;3.50;;
69226;SDS011;56334;52.398;7.552;2023-05-23T09:18:25;15.68;;;3.60;;
69226;SDS011;56334;52.398;7.552;2023-05-23T09:20:51;16.50;;;4.50;;
69226;SDS011;56334;52.398;7.552;2023-05-23T09:23:18;11.15;;;3.35;;
69226;SDS011;56334;52.398;7.552;2023-05-23T09:25:47;16.48;;;3.67;;
69226;SDS011;56334;52.398;7.552;2023-05-23T09:28:14;17.65;;;3.88;;
69226;SDS011;56334;52.398;7.552;2023-05-23T09:30:40;13.35;;;3.30;;
69226;SDS011;56334;52.398;7.552;2023-05-23T09:33:06;16.70;;;3.22;;
69226;SDS011;56334;52.398;7.552;2023-05-23T09:35:32;13.35;;;3.30;;
69226;SDS011;56334;52.398;7.552;2023-05-23T09:37:58;16.88;;;3.75;;
69226;SDS011;56334;52.398;7.552;2023-05-23T09:40:28;13.07;;;3.75;;
69226;SDS011;56334;52.398;7.552;2023-05-23T09:42:55;17.33;;;3.70;;
69226;SDS011;56334;52.398;7.552;2023-05-23T09:45:28;14.85;;;3.97;;
69226;SDS011;56334;52.398;7.552;2023-05-23T09:47:55;13.45;;;3.47;;
69226;SDS011;56334;52.398;7.552;2023-05-23T09:50:21;17.40;;;3.80;;
69226;SDS011;56334;52.398;7.552;2023-05-23T09:52:48;13.48;;;3.58;;
69226;SDS011;56334;52.398;7.552;2023-05-23T09:55:15;13.65;;;3.33;;
69226;SDS011;56334;52.398;7.552;2023-05-23T09:57:42;14.10;;;3.50;;
69226;SDS011;56334;52.398;7.552;2023-05-23T10:00:10;19.35;;;4.07;;
69226;SDS011;56334;52.398;7.552;2023-05-23T10:05:48;12.75;;;3.03;;
69226;SDS011;56334;52.398;7.552;2023-05-23T10:13:40;16.55;;;3.80;;
69226;SDS011;56334;52.398;7.552;2023-05-23T10:16:22;14.18;;;3.55;;
69226;SDS011;56334;52.398;7.552;2023-05-23T10:19:24;14.90;;;3.70;;
69226;SDS011;56334;52.398;7.552;2023-05-23T10:21:43;14.20;;;3.35;;
69226;SDS011;56334;52.398;7.552;2023-05-23T10:24:10;14.70;;;3.70;;
69226;SDS011;56334;52.398;7.552;2023-05-23T10:26:37;14.63;;;3.47;;
69226;SDS011;56334;52.398;7.552;2023-05-23T10:29:03;18.25;;;4.13;;
69226;SDS011;56334;52.398;7.552;2023-05-23T10:31:29;17.25;;;3.53;;
69226;SDS011;56334;52.398;7.552;2023-05-23T10:33:57;15.07;;;3.78;;
69226;SDS011;56334;52.398;7.552;2023-05-23T10:36:27;13.45;;;3.38;;
69226;SDS011;56334;52.398;7.552;2023-05-23T10:39:03;13.45;;;3.30;;
69226;SDS011;56334;52.398;7.552;2023-05-23T10:46:49;15.90;;;3.40;;
69226;SDS011;56334;52.398;7.552;2023-05-23T10:49:16;10.80;;;2.88;;
69226;SDS011;56334;52.398;7.552;2023-05-23T10:51:43;13.50;;;3.03;;
69226;SDS011;56334;52.398;7.552;2023-05-23T10:54:11;12.75;;;3.00;;
69226;SDS011;56334;52.398;7.552;2023-05-23T10:56:37;13.32;;;3.28;;
69226;SDS011;56334;52.398;7.552;2023-05-23T10:59:04;13.82;;;3.00;;
69226;SDS011;56334;52.398;7.552;2023-05-23T11:01:30;12.98;;;3.35;;
69226;SDS011;56334;52.398;7.552;2023-05-23T11:03:56;11.93;;;2.90;;
69226;SDS011;56334;52.398;7.552;2023-05-23T11:06:29;12.45;;;2.83;;
69226;SDS011;56334;52.398;7.552;2023-05-23T11:09:04;14.95;;;2.92;;
69226;SDS011;56334;52.398;7.552;2023-05-23T11:14:18;13.20;;;3.20;;
69226;SDS011;56334;52.398;7.552;2023-05-23T11:16:44;13.48;;;3.00;;
69226;SDS011;56334;52.398;7.552;2023-05-23T11:21:50;12.52;;;2.90;;
69226;SDS011;56334;52.398;7.552;2023-05-23T11:24:17;13.32;;;3.13;;
69226;SDS011;56334;52.398;7.552;2023-05-23T11:27:16;14.40;;;3.30;;
69226;SDS011;56334;52.398;7.552;2023-05-23T11:29:35;19.30;;;3.33;;
69226;SDS011;56334;52.398;7.552;2023-05-23T11:32:07;11.45;;;3.40;;
69226;SDS011;56334;52.398;7.552;2023-05-23T11:34:36;13.02;;;3.10;;
69226;SDS011;56334;52.398;7.552;2023-05-23T11:37:03;12.25;;;2.97;;
69226;SDS011;56334;52.398;7.552;2023-05-23T11:39:29;13.27;;;3.10;;
69226;SDS011;56334;52.398;7.552;2023-05-23T11:42:00;14.00;;;3.45;;
69226;SDS011;56334;52.398;7.552;2023-05-23T11:44:26;13.40;;;3.13;;
69226;SDS011;56334;52.398;7.552;2023-05-23T11:47:02;13.63;;;3.53;;
69226;SDS011;56334;52.398;7.552;2023-05-23T11:49:33;12.57;;;2.80;;
69226;SDS011;56334;52.398;7.552;2023-05-23T11:52:00;10.52;;;2.83;;
69226;SDS011;56334;52.398;7.552;2023-05-23T11:54:28;14.65;;;2.97;;
69226;SDS011;56334;52.398;7.552;2023-05-23T11:56:54;15.65;;;3.10;;
69226;SDS011;56334;52.398;7.552;2023-05-23T11:59:21;12.68;;;3.08;;
69226;SDS011;56334;52.398;7.552;2023-05-23T12:01:47;13.68;;;3.00;;
69226;SDS011;56334;52.398;7.552;2023-05-23T12:04:13;13.40;;;3.85;;
69226;SDS011;56334;52.398;7.552;2023-05-23T12:06:39;16.23;;;3.28;;
69226;SDS011;56334;52.398;7.552;2023-05-23T12:09:06;10.88;;;2.78;;
69226;SDS011;56334;52.398;7.552;2023-05-23T12:11:33;13.02;;;2.80;;
69226;SDS011;56334;52.398;7.552;2023-05-23T12:14:00;13.50;;;2.97;;
69226;SDS011;56334;52.398;7.552;2023-05-23T12:16:30;11.82;;;3.22;;
69226;SDS011;56334;52.398;7.552;2023-05-23T12:18:56;18.17;;;3.28;;
69226;SDS011;56334;52.398;7.552;2023-05-23T12:21:26;10.70;;;2.60;;
69226;SDS011;56334;52.398;7.552;2023-05-23T12:23:52;10.77;;;2.67;;
69226;SDS011;56334;52.398;7.552;2023-05-23T12:26:18;10.57;;;2.65;;
69226;SDS011;56334;52.398;7.552;2023-05-23T12:28:44;10.30;;;2.88;;
69226;SDS011;56334;52.398;7.552;2023-05-23T12:31:11;14.00;;;3.00;;
69226;SDS011;56334;52.398;7.552;2023-05-23T12:33:38;12.90;;;3.20;;
69226;SDS011;56334;52.398;7.552;2023-05-23T12:36:05;11.98;;;2.67;;
69226;SDS011;56334;52.398;7.552;2023-05-23T12:38:34;12.93;;;2.70;;
69226;SDS011;56334;52.398;7.552;2023-05-23T12:41:12;12.20;;;2.75;;
69226;SDS011;56334;52.398;7.552;2023-05-23T12:43:40;10.93;;;2.95;;
69226;SDS011;56334;52.398;7.552;2023-05-23T12:48:39;13.73;;;2.83;;
69226;SDS011;56334;52.398;7.552;2023-05-23T12:51:05;13.10;;;2.67;;
69226;SDS011;56334;52.398;7.552;2023-05-23T12:53:31;13.05;;;2.47;;
69226;SDS011;56334;52.398;7.552;2023-05-23T12:55:57;11.45;;;2.67;;
69226;SDS011;56334;52.398;7.552;2023-05-23T12:58:24;10.82;;;2.90;;
69226;SDS011;56334;52.398;7.552;2023-05-23T13:00:51;14.13;;;2.97;;
69226;SDS011;56334;52.398;7.552;2023-05-23T13:03:18;11.85;;;2.40;;
69226;SDS011;56334;52.398;7.552;2023-05-23T13:05:44;13.10;;;2.47;;
69226;SDS011;56334;52.398;7.552;2023-05-23T13:08:10;8.75;;;2.20;;
69226;SDS011;56334;52.398;7.552;2023-05-23T13:10:37;11.90;;;2.45;;
69226;SDS011;56334;52.398;7.552;2023-05-23T13:13:03;11.63;;;2.53;;
69226;SDS011;56334;52.398;7.552;2023-05-23T13:15:29;12.63;;;2.80;;
69226;SDS011;56334;52.398;7.552;2023-05-23T13:17:56;13.70;;;3.10;;
69226;SDS011;56334;52.398;7.552;2023-05-23T13:20:22;11.85;;;2.95;;
69226;SDS011;56334;52.398;7.552;2023-05-23T13:22:48;13.73;;;2.78;;
69226;SDS011;56334;52.398;7.552;2023-05-23T13:25:14;10.40;;;2.53;;
69226;SDS011;56334;52.398;7.552;2023-05-23T13:27:42;11.05;;;3.28;;
69226;SDS011;56334;52.398;7.552;2023-05-23T13:30:08;13.18;;;3.08;;
69226;SDS011;56334;52.398;7.552;2023-05-23T13:32:34;11.48;;;2.70;;
69226;SDS011;56334;52.398;7.552;2023-05-23T13:35:00;10.10;;;2.75;;
69226;SDS011;56334;52.398;7.552;2023-05-23T13:37:27;9.55;;;2.47;;
69226;SDS011;56334;52.398;7.552;2023-05-23T13:39:53;12.27;;;3.13;;
69226;SDS011;56334;52.398;7.552;2023-05-23T13:42:19;9.10;;;2.45;;
69226;SDS011;56334;52.398;7.552;2023-05-23T13:44:45;12.45;;;2.60;;
69226;SDS011;56334;52.398;7.552;2023-05-23T13:47:12;10.35;;;2.28;;
69226;SDS011;56334;52.398;7.552;2023-05-23T13:49:38;9.43;;;2.30;;
69226;SDS011;56334;52.398;7.552;2023-05-23T13:52:05;13.93;;;3.30;;
69226;SDS011;56334;52.398;7.552;2023-05-23T13:54:31;13.68;;;2.70;;
69226;SDS011;56334;52.398;7.552;2023-05-23T13:56:58;11.77;;;2.45;;
69226;SDS011;56334;52.398;7.552;2023-05-23T13:59:25;12.73;;;2.65;;
69226;SDS011;56334;52.398;7.552;2023-05-23T14:01:51;13.13;;;2.53;;
69226;SDS011;56334;52.398;7.552;2023-05-23T14:04:18;11.15;;;2.38;;
69226;SDS011;56334;52.398;7.552;2023-05-23T14:06:44;11.25;;;2.38;;
69226;SDS011;56334;52.398;7.552;2023-05-23T14:09:10;10.18;;;2.70;;
69226;SDS011;56334;52.398;7.552;2023-05-23T14:11:36;10.95;;;2.70;;
69226;SDS011;56334;52.398;7.552;2023-05-23T14:14:03;13.80;;;2.53;;
69226;SDS011;56334;52.398;7.552;2023-05-23T14:16:29;11.20;;;2.67;;
69226;SDS011;56334;52.398;7.552;2023-05-23T14:18:55;11.93;;;2.60;;
69226;SDS011;56334;52.398;7.552;2023-05-23T14:21:21;13.27;;;2.50;;
69226;SDS011;56334;52.398;7.552;2023-05-23T14:23:48;11.52;;;2.60;;
69226;SDS011;56334;52.398;7.552;2023-05-23T14:26:14;12.50;;;3.03;;
69226;SDS011;56334;52.398;7.552;2023-05-23T14:28:40;11.63;;;2.78;;
69226;SDS011;56334;52.398;7.552;2023-05-23T14:31:06;15.13;;;3.50;;
69226;SDS011;56334;52.398;7.552;2023-05-23T14:33:32;14.75;;;3.17;;
69226;SDS011;56334;52.398;7.552;2023-05-23T14:36:01;13.02;;;2.55;;
69226;SDS011;56334;52.398;7.552;2023-05-23T14:38:28;11.55;;;2.50;;
69226;SDS011;56334;52.398;7.552;2023-05-23T14:40:54;12.18;;;2.67;;
69226;SDS011;56334;52.398;7.552;2023-05-23T14:43:20;10.20;;;2.83;;
69226;SDS011;56334;52.398;7.552;2023-05-23T14:45:46;11.95;;;2.50;;
69226;SDS011;56334;52.398;7.552;2023-05-23T14:48:12;12.15;;;2.60;;
69226;SDS011;56334;52.398;7.552;2023-05-23T14:50:38;14.80;;;2.85;;
69226;SDS011;56334;52.398;7.552;2023-05-23T14:53:04;8.40;;;2.38;;
69226;SDS011;56334;52.398;7.552;2023-05-23T14:55:30;13.07;;;2.60;;
69226;SDS011;56334;52.398;7.552;2023-05-23T14:57:56;12.35;;;2.78;;
69226;SDS011;56334;52.398;7.552;2023-05-23T15:00:23;11.00;;;2.65;;
69226;SDS011;56334;52.398;7.552;2023-05-23T15:05:16;8.20;;;2.40;;
69226;SDS011;56334;52.398;7.552;2023-05-23T15:07:42;12.80;;;2.60;;